Time,TemperatureF,DewpointF,PressureIn,WindDirection,WindDirectionDegrees,WindSpeedMPH,WindSpeedGustMPH,Humidity,HourlyPrecipIn,Conditions,Clouds,dailyrainin,SoftwareType,DateUTC
2013-02-23 09:58:00,31.8,14.0,29.57,SSW,202,1.6,1.6,48,0.00,,,0.00,WUHU21623XXSP,2013-02-23 14:58:00,
2013-02-23 10:03:00,41.2,22.6,29.57,South,188,2.6,3.4,48,0.00,,,0.00,WUHU21623XXSP,2013-02-23 15:03:00,
2013-02-23 10:09:00,42.3,23.7,29.56,NNE,22,0.4,6.3,48,0.00,,,0.00,WUHU21623XXSP,2013-02-23 15:09:00,
2013-02-23 10:14:00,36.9,25.4,29.56,WSW,238,2.7,6.3,63,0.00,,,0.00,WUHU21623XXSP,2013-02-23 15:14:00,
2013-02-23 10:19:00,35.1,26.4,29.56,SSW,202,1.2,3.8,70,0.00,,,0.00,WUHU21623XXSP,2013-02-23 15:19:00,
2013-02-23 10:24:00,34.2,27.1,29.56,West,275,2.2,3.8,75,0.00,,,0.00,WUHU21623XXSP,2013-02-23 15:24:00,
2013-02-23 10:29:00,33.6,26.6,29.56,SSW,193,1.9,4.3,75,0.00,,,0.00,WUHU21623XXSP,2013-02-23 15:29:00,
2013-02-23 10:34:00,33.4,27.1,29.56,WSW,237,2.3,4.5,78,0.00,,,0.00,WUHU21623XXSP,2013-02-23 15:34:00,
2013-02-23 10:39:00,33.4,27.9,29.56,South,190,3.2,5.4,80,0.00,,,0.00,WUHU21623XXSP,2013-02-23 15:39:00,
2013-02-23 10:44:00,33.3,26.3,29.56,WSW,244,2.6,5.4,75,0.00,,,0.00,WUHU21623XXSP,2013-02-23 15:44:00,
2013-02-23 10:49:00,33.4,26.4,29.56,SW,225,4.0,6.0,75,0.00,,,0.00,WUHU21623XXSP,2013-02-23 15:49:00,
2013-02-23 10:54:00,33.8,27.5,29.56,SW,225,3.8,6.0,78,0.00,,,0.00,WUHU21623XXSP,2013-02-23 15:54:00,
2013-02-23 10:59:00,34.0,26.1,29.56,SW,225,2.9,5.6,73,0.00,,,0.00,WUHU21623XXSP,2013-02-23 15:59:00,
2013-02-23 11:04:00,34.0,24.4,29.56,SW,221,2.5,5.6,68,0.00,,,0.00,WUHU21623XXSP,2013-02-23 16:04:00,
2013-02-23 11:09:00,34.0,20.6,29.56,SSW,210,2.8,4.3,58,0.00,,,0.00,WUHU21623XXSP,2013-02-23 16:09:00,
2013-02-23 11:14:00,33.8,15.8,29.56,SSW,206,2.7,4.3,48,0.00,,,0.00,WUHU21623XXSP,2013-02-23 16:14:00,
2013-02-23 11:19:00,33.8,15.8,29.56,WSW,240,2.6,4.3,48,0.00,,,0.00,WUHU21623XXSP,2013-02-23 16:19:00,
2013-02-23 11:24:00,34.0,16.0,29.56,SW,232,3.4,7.4,48,0.00,,,0.00,WUHU21623XXSP,2013-02-23 16:24:00,
2013-02-23 11:29:00,33.8,15.8,29.56,WSW,248,2.7,7.4,48,0.00,,,0.00,WUHU21623XXSP,2013-02-23 16:29:00,
2013-02-23 11:34:00,33.8,15.8,29.56,SW,231,2.4,5.4,48,0.00,,,0.00,WUHU21623XXSP,2013-02-23 16:34:00,
2013-02-23 11:39:00,34.0,16.0,29.56,SSW,207,2.4,5.4,48,0.00,,,0.00,WUHU21623XXSP,2013-02-23 16:39:00,
2013-02-23 11:44:00,34.2,16.2,29.56,SSW,205,2.5,5.1,48,0.00,,,0.00,WUHU21623XXSP,2013-02-23 16:44:00,
2013-02-23 11:49:00,34.5,16.5,29.56,SSW,202,1.6,4.7,48,0.00,,,0.00,WUHU21623XXSP,2013-02-23 16:49:00,
2013-02-23 11:54:00,34.7,16.7,29.56,SSW,197,2.3,4.0,48,0.00,,,0.00,WUHU21623XXSP,2013-02-23 16:54:00,
2013-02-23 11:59:00,34.7,16.7,29.57,SW,225,5.8,8.3,48,0.00,,,0.00,WUHU21623XXSP,2013-02-23 16:59:00,
2013-02-23 12:04:00,34.7,16.7,29.56,SW,225,3.8,8.3,48,0.00,,,0.00,WUHU21623XXSP,2013-02-23 17:04:00,
2013-02-23 12:09:00,34.7,16.7,29.56,SSW,207,2.4,4.5,48,0.00,,,0.00,WUHU21623XXSP,2013-02-23 17:09:00,
2013-02-23 12:14:00,34.5,16.5,29.56,South,180,0.0,4.0,48,0.00,,,0.00,WUHU21623XXSP,2013-02-23 17:14:00,
2013-02-23 12:19:00,34.3,16.3,29.56,SW,233,2.0,4.3,48,0.00,,,0.00,WUHU21623XXSP,2013-02-23 17:19:00,
2013-02-23 12:24:00,34.5,16.5,29.56,South,180,3.4,5.1,48,0.00,,,0.00,WUHU21623XXSP,2013-02-23 17:24:00,
2013-02-23 12:29:00,34.7,16.7,29.55,SSW,202,2.0,5.1,48,0.00,,,0.00,WUHU21623XXSP,2013-02-23 17:29:00,
2013-02-23 12:34:00,34.7,16.7,29.55,SSW,199,1.9,3.4,48,0.00,,,0.00,WUHU21623XXSP,2013-02-23 17:34:00,
2013-02-23 12:39:00,34.9,16.8,29.55,SW,225,2.9,4.0,48,0.00,,,0.00,WUHU21623XXSP,2013-02-23 17:39:00,
2013-02-23 12:44:00,34.7,16.7,29.55,SW,225,2.9,4.7,48,0.00,,,0.00,WUHU21623XXSP,2013-02-23 17:44:00,
2013-02-23 12:49:00,34.7,16.7,29.55,SW,225,4.0,4.7,48,0.00,,,0.00,WUHU21623XXSP,2013-02-23 17:49:00,
2013-02-23 12:54:00,34.9,16.8,29.55,WSW,247,2.9,4.3,48,0.00,,,0.00,WUHU21623XXSP,2013-02-23 17:54:00,
2013-02-23 12:59:00,34.7,16.7,29.55,WSW,247,3.8,6.3,48,0.00,,,0.00,WUHU21623XXSP,2013-02-23 17:59:00,
2013-02-23 13:04:00,34.7,16.7,29.56,WSW,247,2.0,6.3,48,0.00,,,0.00,WUHU21623XXSP,2013-02-23 18:04:00,
2013-02-23 13:09:00,34.5,16.5,29.56,SW,225,2.5,4.3,48,0.00,,,0.00,WUHU21623XXSP,2013-02-23 18:09:00,
2013-02-23 13:14:00,34.3,16.3,29.56,WSW,247,2.0,5.6,48,0.00,,,0.00,WUHU21623XXSP,2013-02-23 18:14:00,
2013-02-23 13:19:00,34.7,16.7,29.56,SSW,198,2.8,5.6,48,0.00,,,0.00,WUHU21623XXSP,2013-02-23 18:19:00,
2013-02-23 13:24:00,34.9,16.8,29.56,West,279,3.7,6.5,48,0.00,,,0.00,WUHU21623XXSP,2013-02-23 18:24:00,
2013-02-23 13:29:00,34.9,16.8,29.56,West,273,1.9,6.5,48,0.00,,,0.00,WUHU21623XXSP,2013-02-23 18:29:00,
2013-02-23 13:34:00,34.7,16.7,29.55,SW,225,2.5,4.0,48,0.00,,,0.00,WUHU21623XXSP,2013-02-23 18:34:00,
2013-02-23 13:39:00,34.7,16.7,29.55,West,270,0.0,4.0,48,0.00,,,0.00,WUHU21623XXSP,2013-02-23 18:39:00,
2013-02-23 13:44:00,34.9,16.8,29.54,SW,235,2.6,3.6,48,0.00,,,0.00,WUHU21623XXSP,2013-02-23 18:44:00,
2013-02-23 13:49:00,35.1,17.0,29.54,WSW,249,2.1,3.6,48,0.00,,,0.00,WUHU21623XXSP,2013-02-23 18:49:00,
2013-02-23 13:54:00,35.1,17.0,29.54,WSW,249,2.2,3.6,48,0.00,,,0.00,WUHU21623XXSP,2013-02-23 18:54:00,
2013-02-23 13:59:00,34.7,16.7,29.53,West,277,2.5,3.8,48,0.00,,,0.00,WUHU21623XXSP,2013-02-23 18:59:00,
2013-02-23 14:04:00,34.5,16.5,29.53,WSW,246,2.8,5.8,48,0.00,,,0.00,WUHU21623XXSP,2013-02-23 19:04:00,
2013-02-23 14:09:00,34.3,16.3,29.53,WSW,249,1.7,5.8,48,0.00,,,0.00,WUHU21623XXSP,2013-02-23 19:09:00,
2013-02-23 14:14:00,34.3,16.3,29.53,WSW,247,1.3,3.4,48,0.00,,,0.00,WUHU21623XXSP,2013-02-23 19:14:00,
2013-02-23 14:19:00,34.3,16.3,29.53,SW,228,1.7,4.3,48,0.00,,,0.00,WUHU21623XXSP,2013-02-23 19:19:00,
2013-02-23 14:24:00,34.5,16.5,29.53,WSW,247,2.3,4.3,48,0.00,,,0.00,WUHU21623XXSP,2013-02-23 19:24:00,
2013-02-23 14:29:00,34.3,16.3,29.53,WSW,247,3.1,4.5,48,0.00,,,0.00,WUHU21623XXSP,2013-02-23 19:29:00,
2013-02-23 14:35:00,34.2,16.2,29.54,WSW,247,3.1,5.4,48,0.00,,,0.00,WUHU21623XXSP,2013-02-23 19:35:00,
2013-02-23 14:40:00,34.0,16.0,29.54,SW,224,1.9,5.4,48,0.00,,,0.00,WUHU21623XXSP,2013-02-23 19:40:00,
2013-02-23 14:45:00,34.0,16.0,29.54,South,180,2.0,3.4,48,0.00,,,0.00,WUHU21623XXSP,2013-02-23 19:45:00,
2013-02-23 14:50:00,33.8,15.8,29.54,SSW,202,0.0,3.4,48,0.00,,,0.00,WUHU21623XXSP,2013-02-23 19:50:00,
2013-02-23 14:54:00,33.4,15.5,29.54,SW,225,2.0,2.7,48,0.00,,,0.00,WUHU21623XXSP,2013-02-23 19:54:00,
2013-02-23 15:00:00,33.4,15.5,29.54,South,180,1.2,3.8,48,0.00,,,0.00,WUHU21623XXSP,2013-02-23 20:00:00,
2013-02-23 15:05:00,33.3,15.4,29.54,WNW,286,2.6,4.9,48,0.00,,,0.00,WUHU21623XXSP,2013-02-23 20:05:00,
2013-02-23 15:10:00,32.9,15.0,29.54,WSW,247,4.3,4.9,48,0.00,,,0.00,WUHU21623XXSP,2013-02-23 20:10:00,
2013-02-23 15:15:00,32.9,15.0,29.54,WNW,286,1.7,4.3,48,0.00,,,0.00,WUHU21623XXSP,2013-02-23 20:15:00,
2013-02-23 15:20:00,32.9,15.0,29.53,West,270,1.3,3.8,48,0.00,,,0.00,WUHU21623XXSP,2013-02-23 20:20:00,
2013-02-23 15:25:00,32.9,15.0,29.53,West,261,2.6,4.0,48,0.00,,,0.00,WUHU21623XXSP,2013-02-23 20:25:00,
2013-02-23 15:30:00,32.7,14.8,29.53,WSW,247,1.7,4.7,48,0.00,,,0.00,WUHU21623XXSP,2013-02-23 20:30:00,
2013-02-23 15:35:00,32.5,14.6,29.53,WSW,247,3.8,4.7,48,0.00,,,0.00,WUHU21623XXSP,2013-02-23 20:35:00,
2013-02-23 15:40:00,32.4,14.5,29.53,West,262,2.2,4.0,48,0.00,,,0.00,WUHU21623XXSP,2013-02-23 20:40:00,
2013-02-23 15:45:00,32.4,14.5,29.53,SSW,202,3.1,4.0,48,0.00,,,0.00,WUHU21623XXSP,2013-02-23 20:45:00,
2013-02-23 15:50:00,32.2,14.4,29.54,WSW,247,1.8,3.1,48,0.00,,,0.00,WUHU21623XXSP,2013-02-23 20:50:00,
2013-02-23 15:55:00,32.0,14.2,29.54,WSW,247,3.1,4.5,48,0.00,,,0.00,WUHU21623XXSP,2013-02-23 20:55:00,
2013-02-23 16:00:00,31.5,13.7,29.54,West,270,1.6,4.5,48,0.00,,,0.00,WUHU21623XXSP,2013-02-23 21:00:00,
2013-02-23 16:05:00,31.5,13.7,29.54,West,270,1.6,3.6,48,0.00,,,0.00,WUHU21623XXSP,2013-02-23 21:05:00,
2013-02-23 16:10:00,31.3,13.5,29.54,WSW,247,2.2,2.2,48,0.00,,,0.00,WUHU21623XXSP,2013-02-23 21:10:00,
2013-02-23 16:15:00,31.3,13.5,29.55,SW,234,1.3,5.6,48,0.00,,,0.00,WUHU21623XXSP,2013-02-23 21:15:00,
2013-02-23 16:20:00,31.1,13.3,29.55,West,270,2.0,5.6,48,0.00,,,0.00,WUHU21623XXSP,2013-02-23 21:20:00,
2013-02-23 16:25:00,30.9,13.2,29.54,WSW,251,2.1,3.4,48,0.00,,,0.00,WUHU21623XXSP,2013-02-23 21:25:00,
2013-02-23 16:30:00,30.9,13.2,29.54,West,270,1.3,3.4,48,0.00,,,0.00,WUHU21623XXSP,2013-02-23 21:30:00,
2013-02-23 16:35:00,30.9,13.2,29.54,WSW,247,2.5,3.4,48,0.00,,,0.00,WUHU21623XXSP,2013-02-23 21:35:00,
2013-02-23 16:40:00,30.9,13.2,29.54,WSW,247,2.0,3.6,48,0.00,,,0.00,WUHU21623XXSP,2013-02-23 21:40:00,
2013-02-23 16:45:00,30.9,13.2,29.54,WSW,247,1.7,3.6,48,0.00,,,0.00,WUHU21623XXSP,2013-02-23 21:45:00,
2013-02-23 16:50:00,30.6,12.9,29.54,WSW,247,2.3,3.1,48,0.00,,,0.00,WUHU21623XXSP,2013-02-23 21:50:00,
2013-02-23 16:55:00,30.6,12.9,29.55,WSW,247,0.0,3.1,48,0.00,,,0.00,WUHU21623XXSP,2013-02-23 21:55:00,
2013-02-23 17:00:00,30.6,12.9,29.54,WSW,247,1.5,2.0,48,0.00,,,0.00,WUHU21623XXSP,2013-02-23 22:00:00,
2013-02-23 17:05:00,30.4,12.7,29.55,WNW,292,2.9,4.3,48,0.00,,,0.00,WUHU21623XXSP,2013-02-23 22:05:00,
2013-02-23 17:10:00,30.4,12.7,29.55,WSW,250,2.4,4.3,48,0.00,,,0.00,WUHU21623XXSP,2013-02-23 22:10:00,
2013-02-23 17:15:00,30.0,12.3,29.55,West,270,1.3,57.0,48,0.00,,,0.00,WUHU21623XXSP,2013-02-23 22:15:00,
2013-02-23 17:20:00,29.8,12.2,29.55,SW,225,0.0,57.0,48,0.00,,,0.00,WUHU21623XXSP,2013-02-23 22:20:00,
2013-02-23 17:25:00,29.8,12.2,29.55,SW,225,1.1,3.4,48,0.00,,,0.00,WUHU21623XXSP,2013-02-23 22:25:00,
2013-02-23 17:30:00,29.7,12.1,29.55,WSW,246,2.1,3.4,48,0.00,,,0.00,WUHU21623XXSP,2013-02-23 22:30:00,
2013-02-23 17:35:00,29.5,11.9,29.55,WSW,247,1.5,2.9,48,0.00,,,0.00,WUHU21623XXSP,2013-02-23 22:35:00,
2013-02-23 17:40:00,29.3,11.7,29.56,WSW,247,0.0,4.7,48,0.00,,,0.00,WUHU21623XXSP,2013-02-23 22:40:00,
2013-02-23 17:45:00,29.3,11.7,29.56,WSW,247,1.8,4.7,48,0.00,,,0.00,WUHU21623XXSP,2013-02-23 22:45:00,
2013-02-23 17:50:00,29.1,11.5,29.56,WSW,247,0.0,2.7,48,0.00,,,0.00,WUHU21623XXSP,2013-02-23 22:50:00,
2013-02-23 17:55:00,29.1,11.5,29.56,WSW,247,1.8,2.9,48,0.00,,,0.00,WUHU21623XXSP,2013-02-23 22:55:00,
2013-02-23 18:00:00,28.8,11.2,29.56,West,270,1.8,2.9,48,0.00,,,0.00,WUHU21623XXSP,2013-02-23 23:00:00,
2013-02-23 18:05:00,28.8,11.2,29.56,West,270,1.3,2.9,48,0.00,,,0.00,WUHU21623XXSP,2013-02-23 23:05:00,
2013-02-23 18:10:00,28.8,11.2,29.56,West,270,0.0,2.0,48,0.00,,,0.00,WUHU21623XXSP,2013-02-23 23:10:00,
2013-02-23 18:15:00,28.6,11.0,29.57,West,270,0.0,0.0,48,0.00,,,0.00,WUHU21623XXSP,2013-02-23 23:15:00,
2013-02-23 18:20:00,28.6,11.0,29.57,West,270,0.0,0.0,48,0.00,,,0.00,WUHU21623XXSP,2013-02-23 23:20:00,
2013-02-23 18:25:00,28.4,10.9,29.57,West,270,0.0,2.5,48,0.00,,,0.00,WUHU21623XXSP,2013-02-23 23:25:00,
2013-02-23 18:30:00,28.2,10.7,29.57,WSW,237,2.7,3.6,48,0.00,,,0.00,WUHU21623XXSP,2013-02-23 23:30:00,
2013-02-23 18:35:00,28.2,10.7,29.57,West,270,2.2,4.5,48,0.00,,,0.00,WUHU21623XXSP,2013-02-23 23:35:00,
2013-02-23 18:40:00,28.0,10.5,29.57,WSW,247,0.0,4.5,48,0.00,,,0.00,WUHU21623XXSP,2013-02-23 23:40:00,
2013-02-23 18:45:00,28.0,10.5,29.58,SSW,202,4.8,28.4,48,0.00,,,0.00,WUHU21623XXSP,2013-02-23 23:45:00,
2013-02-23 18:50:00,27.9,10.4,29.58,SSW,193,7.0,28.4,48,0.00,,,0.00,WUHU21623XXSP,2013-02-23 23:50:00,
2013-02-23 18:55:00,27.9,10.4,29.58,South,183,12.8,28.4,48,0.00,,,0.00,WUHU21623XXSP,2013-02-23 23:55:00,
2013-02-23 19:00:00,27.7,10.2,29.58,WSW,247,2.7,28.4,48,0.00,,,0.00,WUHU21623XXSP,2013-02-24 00:00:00,
2013-02-23 19:05:00,27.7,10.2,29.59,WNW,292,4.3,28.4,48,0.00,,,0.00,WUHU21623XXSP,2013-02-24 00:05:00,
2013-02-23 19:10:00,27.7,10.2,29.58,SSW,211,4.6,28.4,48,0.00,,,0.00,WUHU21623XXSP,2013-02-24 00:10:00,
2013-02-23 19:15:00,27.5,10.0,29.58,South,187,13.8,28.4,48,0.00,,,0.00,WUHU21623XXSP,2013-02-24 00:15:00,
2013-02-23 19:20:00,27.3,9.8,29.59,SSW,210,5.4,28.4,48,0.00,,,0.00,WUHU21623XXSP,2013-02-24 00:20:00,
2013-02-23 19:25:00,27.3,9.8,29.59,SSW,192,10.2,28.4,48,0.00,,,0.00,WUHU21623XXSP,2013-02-24 00:25:00,
2013-02-23 19:30:00,27.3,9.8,29.59,South,180,28.4,28.4,48,0.00,,,0.00,WUHU21623XXSP,2013-02-24 00:30:00,
2013-02-23 19:35:00,27.1,9.7,29.59,South,182,18.5,28.4,48,0.00,,,0.00,WUHU21623XXSP,2013-02-24 00:35:00,
2013-02-23 19:40:00,27.1,9.7,29.59,WSW,247,2.0,28.4,48,0.00,,,0.00,WUHU21623XXSP,2013-02-24 00:40:00,
2013-02-23 19:45:00,27.1,9.7,29.59,South,180,28.4,28.4,48,0.00,,,0.00,WUHU21623XXSP,2013-02-24 00:45:00,
2013-02-23 19:50:00,26.8,9.4,29.59,South,184,13.7,28.4,48,0.00,,,0.00,WUHU21623XXSP,2013-02-24 00:50:00,
2013-02-23 19:55:00,26.8,9.4,29.59,West,265,2.0,28.4,48,0.00,,,0.00,WUHU21623XXSP,2013-02-24 00:55:00,
2013-02-23 20:00:00,26.6,9.2,29.59,West,270,2.4,28.4,48,0.00,,,0.00,WUHU21623XXSP,2013-02-24 01:00:00,
2013-02-23 20:05:00,26.4,9.0,29.59,South,180,23.9,28.4,48,0.00,,,0.00,WUHU21623XXSP,2013-02-24 01:05:00,
2013-02-23 20:10:00,26.4,9.0,29.59,South,180,28.4,28.4,48,0.00,,,0.00,WUHU21623XXSP,2013-02-24 01:10:00,
2013-02-23 20:15:00,26.2,8.8,29.59,South,180,28.4,28.4,48,0.00,,,0.00,WUHU21623XXSP,2013-02-24 01:15:00,
2013-02-23 20:20:00,26.2,8.8,29.59,South,180,28.4,28.4,48,0.00,,,0.00,WUHU21623XXSP,2013-02-24 01:20:00,
2013-02-23 20:25:00,26.2,8.8,29.59,South,180,28.4,28.4,48,0.00,,,0.00,WUHU21623XXSP,2013-02-24 01:25:00,
2013-02-23 20:30:00,26.1,8.7,29.60,South,180,28.4,28.4,48,0.00,,,0.00,WUHU21623XXSP,2013-02-24 01:30:00,
2013-02-23 20:35:00,26.2,8.8,29.60,West,270,0.0,28.4,48,0.00,,,0.00,WUHU21623XXSP,2013-02-24 01:35:00,
2013-02-23 20:40:00,26.1,8.7,29.60,South,180,28.4,28.4,48,0.00,,,0.00,WUHU21623XXSP,2013-02-24 01:40:00,
2013-02-23 20:45:00,26.1,8.7,29.60,South,180,28.4,28.4,48,0.00,,,0.00,WUHU21623XXSP,2013-02-24 01:45:00,
2013-02-23 20:50:00,26.1,8.7,29.60,South,182,20.9,28.4,48,0.00,,,0.00,WUHU21623XXSP,2013-02-24 01:50:00,
2013-02-23 20:55:00,25.9,8.6,29.60,South,180,28.4,28.4,48,0.00,,,0.00,WUHU21623XXSP,2013-02-24 01:55:00,
2013-02-23 21:00:00,25.7,8.4,29.60,South,180,28.4,28.4,48,0.00,,,0.00,WUHU21623XXSP,2013-02-24 02:00:00,
2013-02-23 21:06:00,25.5,8.2,29.60,South,180,28.4,28.4,48,0.00,,,0.00,WUHU21623XXSP,2013-02-24 02:06:00,
2013-02-23 21:11:00,25.5,8.2,29.60,South,182,18.6,28.4,48,0.00,,,0.00,WUHU21623XXSP,2013-02-24 02:11:00,
2013-02-23 21:16:00,25.5,8.2,29.60,South,180,28.4,28.4,48,0.20,,,0.20,WUHU21623XXSP,2013-02-24 02:16:00,
2013-02-23 21:21:00,25.3,8.0,29.59,South,180,28.4,28.4,48,0.20,,,0.20,WUHU21623XXSP,2013-02-24 02:21:00,
2013-02-23 21:26:00,25.3,8.0,29.59,South,180,28.4,28.4,48,0.20,,,0.20,WUHU21623XXSP,2013-02-24 02:26:00,
2013-02-23 21:31:00,25.3,8.0,29.59,South,180,28.4,28.4,48,0.20,,,0.20,WUHU21623XXSP,2013-02-24 02:31:00,
2013-02-23 21:35:00,25.2,7.9,29.59,South,189,11.2,28.4,48,0.20,,,0.20,WUHU21623XXSP,2013-02-24 02:35:00,
2013-02-23 21:40:00,25.2,7.9,29.59,South,180,28.4,28.4,48,0.20,,,0.20,WUHU21623XXSP,2013-02-24 02:40:00,
2013-02-23 21:46:00,25.0,7.7,29.59,South,180,28.4,28.4,48,0.20,,,0.20,WUHU21623XXSP,2013-02-24 02:46:00,
2013-02-23 21:51:00,25.0,7.7,29.59,South,180,28.4,28.4,48,0.20,,,0.20,WUHU21623XXSP,2013-02-24 02:51:00,
2013-02-23 21:56:00,25.0,7.7,29.59,South,180,28.4,28.4,48,0.20,,,0.20,WUHU21623XXSP,2013-02-24 02:56:00,
2013-02-23 22:01:00,25.0,7.7,29.59,South,180,28.4,28.4,48,0.20,,,0.20,WUHU21623XXSP,2013-02-24 03:01:00,
2013-02-23 22:06:00,25.0,7.7,29.59,South,180,28.4,28.4,48,0.20,,,0.20,WUHU21623XXSP,2013-02-24 03:06:00,
2013-02-23 22:11:00,25.0,7.7,29.59,South,185,12.5,28.4,48,0.20,,,0.20,WUHU21623XXSP,2013-02-24 03:11:00,
2013-02-23 22:16:00,24.8,7.5,29.59,South,180,28.4,28.4,48,0.00,,,0.20,WUHU21623XXSP,2013-02-24 03:16:00,
2013-02-23 22:21:00,24.6,7.4,29.59,South,185,15.7,28.4,48,0.00,,,0.20,WUHU21623XXSP,2013-02-24 03:21:00,
2013-02-23 22:26:00,24.6,7.4,29.59,South,180,23.9,28.4,48,0.00,,,0.20,WUHU21623XXSP,2013-02-24 03:26:00,
2013-02-23 22:31:00,24.4,7.2,29.58,South,180,28.4,28.4,48,0.00,,,0.20,WUHU21623XXSP,2013-02-24 03:31:00,
2013-02-23 22:36:00,24.4,7.2,29.58,South,180,28.4,28.4,48,0.00,,,0.20,WUHU21623XXSP,2013-02-24 03:36:00,
2013-02-23 22:41:00,24.4,7.2,29.58,South,180,28.4,28.4,48,0.00,,,0.20,WUHU21623XXSP,2013-02-24 03:41:00,
2013-02-23 22:46:00,24.3,7.1,29.58,South,180,28.4,28.4,48,0.00,,,0.20,WUHU21623XXSP,2013-02-24 03:46:00,
2013-02-23 22:51:00,24.3,7.1,29.58,South,180,28.4,28.4,48,0.00,,,0.20,WUHU21623XXSP,2013-02-24 03:51:00,
2013-02-23 22:56:00,24.3,7.1,29.58,South,180,28.4,28.4,48,0.00,,,0.20,WUHU21623XXSP,2013-02-24 03:56:00,
2013-02-23 23:01:00,24.1,6.9,29.58,South,180,28.4,28.4,48,0.00,,,0.20,WUHU21623XXSP,2013-02-24 04:01:00,
2013-02-23 23:06:00,24.1,6.9,29.58,West,270,1.3,28.4,48,0.00,,,0.20,WUHU21623XXSP,2013-02-24 04:06:00,
2013-02-23 23:11:00,23.9,6.7,29.58,South,180,28.4,28.4,48,0.00,,,0.20,WUHU21623XXSP,2013-02-24 04:11:00,
2013-02-23 23:16:00,23.7,6.5,29.58,South,180,28.4,28.4,48,0.00,,,0.20,WUHU21623XXSP,2013-02-24 04:16:00,
2013-02-23 23:21:00,23.7,6.5,29.58,South,180,28.4,28.4,48,0.00,,,0.20,WUHU21623XXSP,2013-02-24 04:21:00,
2013-02-23 23:26:00,23.7,6.5,29.58,South,180,28.4,28.4,48,0.00,,,0.20,WUHU21623XXSP,2013-02-24 04:26:00,
2013-02-23 23:31:00,23.5,6.3,29.58,South,180,28.4,28.4,48,0.00,,,0.20,WUHU21623XXSP,2013-02-24 04:31:00,
2013-02-23 23:36:00,23.4,6.3,29.58,South,180,28.4,28.4,48,0.00,,,0.20,WUHU21623XXSP,2013-02-24 04:36:00,
2013-02-23 23:41:00,23.4,6.3,29.58,South,180,28.4,28.4,48,0.00,,,0.20,WUHU21623XXSP,2013-02-24 04:41:00,
2013-02-23 23:46:00,23.2,6.1,29.58,WSW,247,0.0,28.4,48,0.00,,,0.20,WUHU21623XXSP,2013-02-24 04:46:00,
2013-02-23 23:51:00,22.8,5.7,29.58,South,180,28.4,28.4,48,0.00,,,0.20,WUHU21623XXSP,2013-02-24 04:51:00,
2013-02-23 23:56:00,22.6,5.5,29.58,South,180,28.4,28.4,48,0.00,,,0.20,WUHU21623XXSP,2013-02-24 04:56:00,